Time;durP1;ratioP1;P1;durP2;ratioP2;P2;SDS_P1;SDS_P2;PMS_P1;PMS_P2;Temp;Humidity;BMP_temperature;BMP_pressure;BME280_temperature;BME280_humidity;BME280_pressure;Samples;Min_cycle;Max_cycle;Signal;HPM_P1;HPM_P2
2021/06/30 00:04:17;;;;;;;6.30;3.75;;;;;;;24.91;45.65;99813.39;5143851;57;22137;-74
2021/06/30 00:09:23;;;;;;;6.62;3.70;;;;;;;24.79;45.60;99826.88;5141632;57;21583;-76
2021/06/30 00:14:28;;;;;;;4.30;3.75;;;;;;;24.71;45.80;99838.02;5135494;58;21477;-75
2021/06/30 00:19:35;;;;;;;4.08;3.45;;;;;;;24.72;46.04;99837.50;5135440;57;21095;-72
2021/06/30 00:24:41;;;;;;;7.97;3.60;;;;;;;24.66;46.08;99806.77;5135335;57;21166;-75
2021/06/30 00:29:47;;;;;;;4.08;3.67;;;;;;;24.55;46.30;99814.30;5052547;58;21154;-74
2021/06/30 00:34:52;;;;;;;9.60;4.08;;;;;;;24.42;46.32;99803.66;5135409;58;21154;-74
2021/06/30 00:39:58;;;;;;;4.62;3.90;;;;;;;24.26;46.54;99802.39;5135246;58;21095;-74
2021/06/30 00:45:06;;;;;;;5.70;3.90;;;;;;;24.11;46.67;99798.67;5135422;58;21150;-74
2021/06/30 00:50:20;;;;;;;7.37;3.83;;;;;;;24.01;46.84;99782.14;5052575;58;22100;-75
2021/06/30 00:55:26;;;;;;;4.60;4.20;;;;;;;23.95;47.09;99779.52;5052561;58;21210;-76
2021/06/30 01:00:32;;;;;;;6.00;4.00;;;;;;;23.91;47.13;99775.09;5135218;58;21095;-75
2021/06/30 01:05:38;;;;;;;4.45;3.90;;;;;;;23.81;47.21;99787.77;5135299;58;21174;-75
2021/06/30 01:10:44;;;;;;;6.53;4.08;;;;;;;23.67;47.49;99788.11;5140225;57;21178;-74
2021/06/30 01:15:55;;;;;;;11.33;3.85;;;;;;;23.57;47.79;99785.07;5144091;57;21148;-73
2021/06/30 01:21:05;;;;;;;6.62;4.00;;;;;;;23.54;48.05;99791.73;5144193;57;21171;-75
2021/06/30 01:26:12;;;;;;;9.73;3.70;;;;;;;23.46;48.24;99782.02;5200378;56;21155;-73
2021/06/30 01:31:18;;;;;;;4.87;4.40;;;;;;;23.26;48.44;99780.00;5233204;56;21163;-74
2021/06/30 01:36:24;;;;;;;4.72;3.47;;;;;;;23.12;49.01;99777.09;5233525;56;21147;-74
2021/06/30 01:41:29;;;;;;;7.55;3.80;;;;;;;23.13;49.46;99773.35;5233184;56;21092;-73
2021/06/30 01:46:36;;;;;;;4.37;3.98;;;;;;;23.04;49.70;99761.19;5233348;56;21160;-75
2021/06/30 01:51:42;;;;;;;6.25;4.47;;;;;;;22.84;50.10;99751.05;5233315;56;21626;-74
2021/06/30 01:56:49;;;;;;;4.55;3.80;;;;;;;22.75;50.65;99759.89;5233259;56;21162;-73
2021/06/30 02:01:55;;;;;;;5.72;4.25;;;;;;;22.58;50.95;99754.70;5233340;56;21230;-73
2021/06/30 02:07:00;;;;;;;10.28;4.10;;;;;;;22.46;51.53;99747.79;5232405;56;21096;-74
2021/06/30 02:12:06;;;;;;;11.22;4.60;;;;;;;22.41;51.92;99755.71;5160212;56;21557;-76
2021/06/30 02:17:12;;;;;;;13.43;4.40;;;;;;;22.38;52.14;99756.96;5147397;57;21112;-75
2021/06/30 02:22:19;;;;;;;6.30;4.40;;;;;;;22.46;52.28;99758.56;5147386;57;21226;-74
2021/06/30 02:27:25;;;;;;;4.45;3.87;;;;;;;22.59;52.12;99754.48;5093189;57;21091;-73
2021/06/30 02:32:31;;;;;;;5.28;4.08;;;;;;;22.77;51.91;99742.98;5073847;58;21198;-76
2021/06/30 02:37:38;;;;;;;8.70;4.03;;;;;;;22.83;51.60;99715.16;5073883;58;21159;-75
2021/06/30 02:42:46;;;;;;;4.78;4.17;;;;;;;22.82;51.45;99704.08;5073850;58;21166;-75
2021/06/30 02:47:52;;;;;;;4.72;3.98;;;;;;;22.80;51.63;99704.81;5073738;58;21162;-73
2021/06/30 02:52:58;;;;;;;8.48;3.80;;;;;;;22.81;51.47;99709.16;5073681;58;21226;-74
2021/06/30 02:58:03;;;;;;;7.30;4.62;;;;;;;22.86;51.30;99705.30;5073848;58;21635;-74
2021/06/30 03:03:09;;;;;;;8.95;3.92;;;;;;;22.89;51.09;99708.09;5073665;58;21175;-75
2021/06/30 03:08:15;;;;;;;5.45;4.10;;;;;;;22.88;51.03;99703.22;5080217;57;21159;-74
2021/06/30 03:13:20;;;;;;;7.17;4.37;;;;;;;22.87;51.09;99690.77;5157281;56;21164;-73
2021/06/30 03:18:26;;;;;;;10.95;4.10;;;;;;;22.88;51.11;99691.60;5157689;57;21561;-74
2021/06/30 03:23:32;;;;;;;5.35;3.95;;;;;;;22.85;51.17;99687.47;5158027;57;21147;-73
2021/06/30 03:28:37;;;;;;;6.33;4.33;;;;;;;22.83;51.32;99676.59;5217808;56;21190;-74
2021/06/30 03:33:43;;;;;;;9.75;5.83;;;;;;;22.75;51.59;99662.84;5234788;56;21138;-75
2021/06/30 03:38:49;;;;;;;6.65;3.77;;;;;;;22.65;51.91;99659.78;5157987;57;21174;-75
2021/06/30 03:43:54;;;;;;;6.85;4.60;;;;;;;22.53;52.37;99646.70;5234775;56;21080;-74
2021/06/30 03:49:00;;;;;;;6.67;4.40;;;;;;;22.41;52.79;99641.20;5234807;56;21629;-75
2021/06/30 03:54:08;;;;;;;9.50;4.60;;;;;;;22.32;53.15;99635.73;5157869;56;21088;-73
2021/06/30 03:59:13;;;;;;;6.85;4.35;;;;;;;22.29;53.38;99635.68;5234774;56;21135;-73
2021/06/30 04:04:20;;;;;;;4.45;3.85;;;;;;;22.24;53.67;99630.11;5234536;56;21135;-73
2021/06/30 04:09:26;;;;;;;12.98;4.90;;;;;;;22.21;53.98;99624.31;5157536;57;21150;-75
2021/06/30 04:14:32;;;;;;;5.83;4.65;;;;;;;22.24;53.87;99638.19;5144367;57;21623;-74
2021/06/30 04:19:38;;;;;;;7.42;4.87;;;;;;;22.29;53.93;99634.85;5234660;56;21154;-75
2021/06/30 04:24:44;;;;;;;9.65;4.65;;;;;;;22.32;53.95;99638.44;5157658;57;21167;-75
2021/06/30 04:29:50;;;;;;;6.53;4.67;;;;;;;22.33;54.02;99638.73;5144003;57;21627;-75
2021/06/30 04:34:56;;;;;;;12.63;5.17;;;;;;;22.32;54.11;99654.08;5234635;56;21145;-75
2021/06/30 04:40:03;;;;;;;14.63;4.62;;;;;;;22.36;54.28;99657.17;5157706;57;21163;-74
2021/06/30 04:45:09;;;;;;;7.60;4.55;;;;;;;22.37;54.56;99658.83;5144237;57;21179;-75
2021/06/30 04:50:15;;;;;;;6.30;4.72;;;;;;;22.34;54.52;99668.16;5234630;56;22134;-73
2021/06/30 04:55:21;;;;;;;8.63;5.20;;;;;;;22.35;54.88;99665.77;5157321;57;21151;-73
2021/06/30 05:00:27;;;;;;;7.53;4.83;;;;;;;22.29;55.08;99650.50;5180793;56;21138;-74
2021/06/30 05:05:33;;;;;;;6.05;5.37;;;;;;;22.29;55.59;99665.83;5234713;56;21143;-74
2021/06/30 05:10:39;;;;;;;6.05;5.12;;;;;;;22.21;56.13;99675.49;5206663;55;21056;-73
2021/06/30 05:15:45;;;;;;;9.48;5.55;;;;;;;22.17;56.46;99687.73;5145672;56;21160;-74
2021/06/30 05:20:51;;;;;;;7.72;5.53;;;;;;;22.15;56.59;99698.74;5234279;56;21163;-76
2021/06/30 05:25:57;;;;;;;8.10;5.72;;;;;;;22.14;57.29;99712.42;5196595;55;21199;-74
2021/06/30 05:31:03;;;;;;;10.08;6.15;;;;;;;22.10;57.56;99694.51;5212094;56;21143;-77
2021/06/30 05:36:09;;;;;;;7.62;6.03;;;;;;;22.08;57.94;99688.50;5250597;56;21104;-75
2021/06/30 05:41:15;;;;;;;13.40;6.30;;;;;;;22.05;58.60;99693.79;5250129;56;21104;-74
2021/06/30 05:46:21;;;;;;;7.25;5.78;;;;;;;21.98;59.13;99690.28;5189016;56;21206;-74
2021/06/30 05:51:26;;;;;;;8.58;5.83;;;;;;;22.00;59.93;99700.84;5206644;55;21156;-74
2021/06/30 05:56:32;;;;;;;14.87;6.00;;;;;;;22.07;59.94;99697.63;5220931;56;21168;-78
2021/06/30 06:01:38;;;;;;;11.35;6.22;;;;;;;22.15;60.71;99699.27;5117766;57;21215;-73
2021/06/30 06:06:43;;;;;;;8.50;5.90;;;;;;;22.17;60.69;99691.77;5218011;56;21182;-74
2021/06/30 06:11:49;;;;;;;9.25;6.33;;;;;;;22.22;60.89;99703.56;5103272;57;21183;-74
2021/06/30 06:16:56;;;;;;;9.63;5.33;;;;;;;22.23;61.31;99706.56;5191081;56;21212;-76
2021/06/30 06:22:04;;;;;;;9.03;5.97;;;;;;;22.19;62.14;99714.76;5216735;56;21211;-75
2021/06/30 06:27:09;;;;;;;9.50;5.15;;;;;;;22.14;61.95;99720.50;5204115;56;21197;-74
2021/06/30 06:32:15;;;;;;;5.75;4.45;;;;;;;22.14;62.65;99703.00;5181162;57;21144;-74
2021/06/30 06:37:20;;;;;;;11.40;5.15;;;;;;;22.14;62.68;99698.44;5163992;57;21153;-75
2021/06/30 06:42:26;;;;;;;8.25;5.75;;;;;;;22.16;62.89;99686.90;5218044;57;22267;-75
2021/06/30 06:47:32;;;;;;;7.87;5.45;;;;;;;22.30;63.34;99693.08;5186726;56;21182;-75
2021/06/30 06:52:38;;;;;;;6.37;4.60;;;;;;;22.36;63.11;99701.11;5210732;57;21147;-73
2021/06/30 07:00:51;;;;;;;6.03;4.20;;;;;;;22.58;63.31;99694.05;5368483;54;22515;-74
2021/06/30 07:05:57;;;;;;;6.03;5.35;;;;;;;22.63;62.93;99699.08;5306250;54;21159;-75
2021/06/30 07:11:03;;;;;;;7.58;5.65;;;;;;;22.67;63.00;99700.83;5110607;57;22189;-75
2021/06/30 07:16:09;;;;;;;18.05;5.78;;;;;;;22.73;63.26;99694.58;5213296;56;21253;-76
2021/06/30 07:21:15;;;;;;;10.03;6.30;;;;;;;22.91;63.78;99687.95;5096834;57;21192;-76
2021/06/30 07:26:21;;;;;;;6.15;5.65;;;;;;;23.09;63.46;99685.81;5187000;56;22175;-74
2021/06/30 07:31:27;;;;;;;10.25;5.75;;;;;;;23.16;62.95;99679.85;5108060;57;21151;-73
2021/06/30 07:36:33;;;;;;;10.95;5.35;;;;;;;23.17;62.79;99667.19;5212990;56;21152;-80
2021/06/30 07:41:39;;;;;;;9.28;5.60;;;;;;;23.17;62.82;99663.97;5105450;57;21194;-84
2021/06/30 07:46:44;;;;;;;7.25;5.00;;;;;;;23.25;62.69;99663.67;5223212;56;21160;-81
2021/06/30 07:51:53;;;;;;;16.82;4.92;;;;;;;23.32;62.78;99658.23;5180329;56;21160;-82
2021/06/30 07:56:59;;;;;;;8.20;4.55;;;;;;;23.26;62.32;99668.55;5144317;56;21102;-85
2021/06/30 08:25:46;;;;;;;6.50;2.00;;;;;;;22.88;62.88;99705.08;5410959;53;21408;-84
2021/06/30 08:30:53;;;;;;;8.25;1.82;;;;;;;22.78;62.55;99696.94;5355655;54;21168;-81
2021/06/30 08:35:59;;;;;;;2.92;1.25;;;;;;;22.65;62.07;99704.26;5395372;54;21079;-77
2021/06/30 08:41:05;;;;;;;1.55;1.25;;;;;;;22.53;61.82;99706.00;5389898;54;21097;-79
2021/06/30 08:46:11;;;;;;;4.03;1.77;;;;;;;22.47;61.88;99703.63;5404839;54;21204;-83
2021/06/30 08:51:28;;;;;;;4.30;1.00;;;;;;;22.47;62.08;99709.02;5352394;54;21169;-84
2021/06/30 08:56:37;;;;;;;11.63;1.65;;;;;;;22.44;62.01;99702.22;5217162;56;21208;-78
2021/06/30 09:01:45;;;;;;;4.62;1.77;;;;;;;22.49;61.89;99690.77;5280947;55;21108;-85
2021/06/30 09:06:51;;;;;;;8.13;1.60;;;;;;;22.52;61.98;99686.83;5200555;55;21666;-81
2021/06/30 09:11:59;;;;;;;5.28;1.80;;;;;;;22.55;61.83;99688.58;5203555;56;21142;-80
2021/06/30 09:22:14;;;;;;;2.85;2.15;;;;;;;22.44;61.55;99693.31;5244627;56;21192;-83
2021/06/30 09:27:23;;;;;;;1.20;1.00;;;;;;;22.35;61.64;99682.46;5229845;56;21703;-80
2021/06/30 09:32:29;;;;;;;46.05;2.62;;;;;;;22.30;61.95;99674.22;5238042;56;21163;-81
2021/06/30 09:37:35;;;;;;;9.68;4.70;;;;;;;22.25;62.09;99672.16;5228866;56;21218;-85
2021/06/30 09:42:41;;;;;;;1.30;1.20;;;;;;;22.14;62.43;99667.46;5279632;55;21587;-82
2021/06/30 09:47:54;;;;;;;3.35;1.20;;;;;;;22.09;63.05;99669.44;5138220;56;21181;-81
2021/06/30 09:53:00;;;;;;;2.83;0.98;;;;;;;22.02;63.56;99678.05;5192457;56;21243;-84
2021/06/30 09:58:06;;;;;;;0.75;0.75;;;;;;;21.85;64.17;99677.36;5362067;54;21528;-81
2021/06/30 10:03:11;;;;;;;4.53;1.02;;;;;;;21.70;64.93;99672.23;5388062;54;21093;-83
2021/06/30 10:08:19;;;;;;;10.50;2.15;;;;;;;21.64;66.25;99675.27;5410298;54;21144;-83
2021/06/30 10:13:24;;;;;;;3.58;1.50;;;;;;;21.63;65.95;99677.66;5381161;54;21517;-83
2021/06/30 10:18:34;;;;;;;58.83;46.15;;;;;;;21.57;67.22;99671.75;5382384;54;21215;-81
2021/06/30 10:23:41;;;;;;;2.87;2.10;;;;;;;21.55;67.76;99671.13;5340906;54;21166;-83
2021/06/30 18:34:33;;;;;;;0.80;0.80;;;;;;;20.50;72.64;99872.59;5376713;54;21136;-82
2021/06/30 18:39:39;;;;;;;3.35;1.30;;;;;;;20.22;72.47;99873.45;5299987;55;21131;-85
2021/06/30 18:44:50;;;;;;;1.07;1.07;;;;;;;20.11;72.74;99888.77;5322255;55;21143;-86
2021/06/30 18:49:52;;;;;;;1.05;0.95;;;;;;;20.05;72.58;99890.05;5320125;55;22120;-81
2021/06/30 18:54:58;;;;;;;1.65;1.55;;;;;;;19.99;72.71;99882.28;5303755;55;21148;-78
2021/06/30 19:00:09;;;;;;;1.45;1.35;;;;;;;19.99;72.65;99892.52;5314595;55;21167;-82
2021/06/30 19:05:15;;;;;;;1.72;1.45;;;;;;;19.96;72.72;99897.44;5324800;55;21151;-79
2021/06/30 19:10:23;;;;;;;1.05;1.05;;;;;;;19.94;72.91;99892.77;5355459;55;21123;-82
2021/06/30 19:15:29;;;;;;;4.20;1.15;;;;;;;19.94;73.00;99893.59;5356918;55;21280;-80
2021/06/30 19:20:35;;;;;;;1.47;1.37;;;;;;;19.96;72.94;99902.29;5313843;55;21192;-77
2021/06/30 19:25:43;;;;;;;1.62;1.35;;;;;;;19.98;73.07;99894.87;4947337;55;1752095;-81
2021/06/30 19:30:49;;;;;;;1.60;1.50;;;;;;;19.96;73.44;99891.55;4974524;57;1136882;-86
2021/06/30 19:35:55;;;;;;;1.82;1.25;;;;;;;19.93;73.85;99885.23;4984216;57;1137029;-82
2021/06/30 19:41:01;;;;;;;1.20;1.20;;;;;;;19.90;74.16;99895.00;4976265;57;1136858;-83
2021/06/30 19:46:06;;;;;;;4.63;1.33;;;;;;;19.85;74.24;99900.66;4974261;58;1136942;-87
2021/06/30 19:51:19;;;;;;;0.80;0.80;;;;;;;19.78;74.31;99897.08;4980936;57;1136928;-84
2021/06/30 19:56:19;;;;;;;1.15;0.80;;;;;;;19.69;74.79;99905.78;5056164;57;1136778;-91
2021/06/30 20:01:25;;;;;;;2.17;0.90;;;;;;;19.64;74.55;99915.73;5056810;57;1136724;-83
2021/06/30 20:06:31;;;;;;;0.84;0.84;;;;;;;19.56;74.75;99910.48;5055150;56;1136724;-86
2021/06/30 20:11:37;;;;;;;1.10;1.10;;;;;;;19.53;74.61;99919.45;5058384;57;1136834;-83
2021/06/30 20:16:43;;;;;;;1.00;1.00;;;;;;;19.48;74.59;99932.56;5054935;57;1136794;-86
2021/06/30 20:21:48;;;;;;;0.72;0.72;;;;;;;19.46;74.38;99923.88;5055966;57;1136639;-79
2021/06/30 20:26:54;;;;;;;1.00;1.00;;;;;;;19.45;74.16;99920.36;5057406;57;1136907;-82
2021/06/30 20:32:00;;;;;;;0.80;0.80;;;;;;;19.40;74.22;99913.92;5056973;57;1136881;-87
2021/06/30 20:37:05;;;;;;;3.23;0.90;;;;;;;19.35;74.08;99918.52;5054054;57;1136838;-83
2021/06/30 20:42:12;;;;;;;4.03;0.70;;;;;;;19.29;74.21;99921.43;5055807;57;1136773;-85
2021/06/30 20:47:17;;;;;;;3.50;1.55;;;;;;;19.25;74.36;99912.61;5054841;57;1136797;-85
2021/06/30 20:52:23;;;;;;;0.93;0.93;;;;;;;19.20;74.26;99902.98;5055612;57;1136946;-87
2021/06/30 20:57:29;;;;;;;1.65;0.75;;;;;;;19.23;74.09;99914.16;5054871;57;1136650;-83
2021/06/30 21:02:35;;;;;;;1.28;1.06;;;;;;;19.22;73.76;99919.72;5055240;57;1136665;-85
2021/06/30 21:07:42;;;;;;;1.57;1.32;;;;;;;19.19;73.70;99918.74;5054664;57;1136671;-83
2021/06/30 21:12:47;;;;;;;1.57;1.30;;;;;;;19.16;73.80;99923.97;5054522;57;1136720;-84
2021/06/30 21:17:54;;;;;;;1.55;1.42;;;;;;;19.10;74.11;99911.81;5054269;57;1136973;-81
2021/06/30 21:23:01;;;;;;;1.20;1.10;;;;;;;19.10;74.66;99920.69;5055088;56;1136733;-83
2021/06/30 21:28:07;;;;;;;5.42;1.40;;;;;;;19.02;76.83;99924.84;5054429;57;1136894;-83
2021/06/30 21:33:13;;;;;;;1.40;1.30;;;;;;;18.95;76.16;99931.95;5054579;57;1136800;-82
2021/06/30 21:38:21;;;;;;;1.52;1.45;;;;;;;18.91;76.08;99928.84;5015738;57;1136720;-84
2021/06/30 21:43:27;;;;;;;6.78;1.45;;;;;;;18.84;76.88;99926.56;4980623;57;1136754;-83
2021/06/30 21:48:33;;;;;;;2.75;1.47;;;;;;;18.76;76.57;99925.34;4972023;57;1136780;-83
2021/06/30 21:53:40;;;;;;;2.47;1.75;;;;;;;18.70;76.93;99918.55;4966746;57;1136787;-82
2021/06/30 21:58:46;;;;;;;6.33;2.02;;;;;;;18.65;76.94;99912.91;4971734;58;1136828;-85
2021/06/30 22:03:53;;;;;;;2.35;1.35;;;;;;;18.64;76.65;99909.94;5033579;57;1136900;-84
2021/06/30 22:08:58;;;;;;;1.40;1.30;;;;;;;18.63;76.77;99914.97;4961094;58;1136905;-82
2021/06/30 22:14:05;;;;;;;1.62;1.45;;;;;;;18.64;76.59;99913.95;5053200;57;1136844;-82
2021/06/30 22:19:11;;;;;;;1.83;1.73;;;;;;;18.60;76.37;99910.80;4961854;58;1136755;-83
2021/06/30 22:24:17;;;;;;;1.82;1.70;;;;;;;18.57;76.30;99913.81;5053835;57;1136728;-84
2021/06/30 22:29:22;;;;;;;5.10;1.30;;;;;;;18.55;76.08;99917.19;4970130;58;1136804;-82
2021/06/30 22:34:28;;;;;;;3.92;1.65;;;;;;;18.50;76.53;99912.88;4901038;59;1136658;-83
2021/06/30 22:39:34;;;;;;;1.90;1.80;;;;;;;18.39;76.73;99907.48;5047466;57;1136926;-82
2021/06/30 22:44:40;;;;;;;1.83;1.50;;;;;;;18.29;76.87;99908.27;5065879;57;1136691;-78
2021/06/30 22:49:46;;;;;;;2.02;1.92;;;;;;;18.17;77.39;99900.38;5065533;57;1136755;-83
2021/06/30 22:54:52;;;;;;;1.50;1.40;;;;;;;18.13;77.65;99905.26;5034441;57;1136669;-80
2021/06/30 22:59:58;;;;;;;3.30;1.63;;;;;;;18.07;77.73;99911.33;5065418;57;1136729;-83
2021/06/30 23:05:06;;;;;;;4.27;1.90;;;;;;;18.05;77.92;99908.00;5066753;57;1136745;-79
2021/06/30 23:10:16;;;;;;;1.77;1.60;;;;;;;18.04;77.69;99907.67;5066336;57;1136658;-82
2021/06/30 23:15:21;;;;;;;6.33;2.10;;;;;;;18.01;78.02;99909.91;5065794;57;1136715;-80
2021/06/30 23:20:28;;;;;;;2.87;1.80;;;;;;;17.98;77.75;99897.71;5066562;57;1136698;-79
2021/06/30 23:25:34;;;;;;;1.90;1.80;;;;;;;17.96;77.50;99898.90;5066448;57;1136849;-83
2021/06/30 23:30:40;;;;;;;1.23;1.23;;;;;;;17.92;77.41;99886.39;5029344;57;1136716;-79
2021/06/30 23:35:45;;;;;;;1.43;1.33;;;;;;;17.88;77.84;99881.89;5028852;57;1136724;-84
2021/06/30 23:40:51;;;;;;;3.57;1.90;;;;;;;17.86;77.76;99881.27;5014405;57;1136935;-82
2021/06/30 23:45:56;;;;;;;5.60;1.90;;;;;;;17.80;77.54;99880.65;4984589;57;1136998;-80
2021/06/30 23:51:02;;;;;;;1.27;1.17;;;;;;;17.78;77.50;99877.83;4988073;57;1137118;-80
2021/06/30 23:56:08;;;;;;;3.52;1.72;;;;;;;17.73;77.72;99884.21;4982018;57;1136736;-80
